Time;durP1;ratioP1;P1;durP2;ratioP2;P2;SDS_P1;SDS_P2;PMS_P1;PMS_P2;Temp;Humidity;BMP_temperature;BMP_pressure;BME280_temperature;BME280_humidity;BME280_pressure;Samples;Min_cycle;Max_cycle;Signal;HPM_P1;HPM_P2
2023/07/20 00:02:05;;;;;;;;;;;;;;;21.45;43.98;101316.69;4854241;28;123675;-75
2023/07/20 00:04:32;;;;;;;;;;;;;;;21.45;44.01;101316.69;4839551;29;124314;-75
2023/07/20 00:07:02;;;;;;;;;;;;;;;21.45;43.96;101311.31;4838536;29;113472;-75
2023/07/20 00:09:29;;;;;;;;;;;;;;;21.44;44.08;101309.63;4853450;28;113850;-75
2023/07/20 00:11:56;;;;;;;;;;;;;;;21.45;44.08;101311.31;4852091;28;124360;-75
2023/07/20 00:14:23;;;;;;;;;;;;;;;21.45;44.10;101305.06;4836347;29;123822;-75
2023/07/20 00:16:55;;;;;;;;;;;;;;;21.45;44.05;101313.16;4851725;28;114787;-76
2023/07/20 00:19:24;;;;;;;;;;;;;;;21.45;44.09;101324.78;4833151;29;113967;-77
2023/07/20 00:21:51;;;;;;;;;;;;;;;21.44;44.23;101320.41;4837503;29;124177;-77
2023/07/20 00:24:18;;;;;;;;;;;;;;;21.42;44.10;101330.41;4851642;28;124464;-77
2023/07/20 00:26:45;;;;;;;;;;;;;;;21.40;44.25;101313.53;4849825;28;115846;-77
2023/07/20 00:29:13;;;;;;;;;;;;;;;21.37;44.25;101308.38;4850671;28;113779;-77
2023/07/20 00:31:40;;;;;;;;;;;;;;;21.33;44.17;101317.72;4836939;29;123455;-77
2023/07/20 00:34:07;;;;;;;;;;;;;;;21.30;44.18;101328.72;4840075;29;124016;-77
2023/07/20 00:36:34;;;;;;;;;;;;;;;21.26;44.31;101325.44;4839978;29;113675;-77
2023/07/20 00:39:18;;;;;;;;;;;;;;;21.20;44.32;101313.31;4853875;28;113069;-77
2023/07/20 00:41:45;;;;;;;;;;;;;;;21.18;44.37;101314.44;4854011;28;123385;-77
2023/07/20 00:44:12;;;;;;;;;;;;;;;21.16;44.53;101311.88;4852262;28;124465;-76
2023/07/20 00:46:41;;;;;;;;;;;;;;;21.13;44.52;101306.72;4854533;28;114645;-76
2023/07/20 00:49:08;;;;;;;;;;;;;;;21.13;44.64;101311.25;4855019;28;113496;-77
2023/07/20 00:51:37;;;;;;;;;;;;;;;21.12;44.68;101310.41;4853126;28;123480;-76
2023/07/20 00:54:04;;;;;;;;;;;;;;;21.13;44.65;101317.50;4853114;28;123649;-77
2023/07/20 00:56:32;;;;;;;;;;;;;;;21.13;44.58;101314.81;4852220;28;114658;-77
2023/07/20 00:58:59;;;;;;;;;;;;;;;21.13;44.77;101317.50;4853761;28;114683;-77
2023/07/20 01:01:43;;;;;;;;;;;;;;;21.11;44.71;101314.06;4834946;29;123711;-77
2023/07/20 01:04:10;;;;;;;;;;;;;;;21.13;44.77;101328.28;4861308;28;122896;-77
2023/07/20 01:06:40;;;;;;;;;;;;;;;21.12;44.71;101320.34;4840009;29;114138;-77
2023/07/20 01:09:13;;;;;;;;;;;;;;;21.11;44.86;101319.47;4849734;28;113561;-77
2023/07/20 01:11:59;;;;;;;;;;;;;;;21.09;44.79;101320.59;4842456;29;122039;-77
2023/07/20 01:14:27;;;;;;;;;;;;;;;21.05;44.83;101325.38;4844479;29;122709;-77
2023/07/20 01:16:54;;;;;;;;;;;;;;;21.03;44.85;101321.09;4845705;29;114367;-77
2023/07/20 01:19:21;;;;;;;;;;;;;;;21.01;44.89;101318.53;4847484;29;113353;-77
2023/07/20 01:21:48;;;;;;;;;;;;;;;21.00;44.86;101316.78;4846145;29;124309;-77
2023/07/20 01:24:21;;;;;;;;;;;;;;;20.98;44.98;101324.16;4847185;29;124301;-77
2023/07/20 01:26:59;;;;;;;;;;;;;;;20.96;44.96;101326.13;4849440;29;114861;-76
2023/07/20 01:29:45;;;;;;;;;;;;;;;20.93;45.07;101324.53;4845923;29;114046;-77
2023/07/20 01:32:14;;;;;;;;;;;;;;;20.89;45.03;101319.50;4861124;28;124128;-77
2023/07/20 01:34:41;;;;;;;;;;;;;;;20.83;45.04;101320.00;4844843;29;124282;-76
2023/07/20 01:37:10;;;;;;;;;;;;;;;20.78;45.10;101318.56;4857664;28;112938;-77
2023/07/20 01:39:37;;;;;;;;;;;;;;;20.75;44.99;101321.47;4860979;28;113451;-77
2023/07/20 01:42:05;;;;;;;;;;;;;;;20.70;45.20;101326.41;4849664;29;123958;-77
2023/07/20 01:44:32;;;;;;;;;;;;;;;20.68;45.21;101317.59;4862003;28;124092;-76
2023/07/20 01:47:00;;;;;;;;;;;;;;;20.63;45.19;101319.78;4830059;28;97035;-77
2023/07/20 01:49:27;;;;;;;;;;;;;;;20.60;45.25;101314.66;4840131;29;115152;-77
2023/07/20 01:51:54;;;;;;;;;;;;;;;20.55;45.20;101319.50;4841763;29;125130;-76
2023/07/20 01:54:21;;;;;;;;;;;;;;;20.53;45.25;101316.06;4855094;28;123079;-77
2023/07/20 01:56:48;;;;;;;;;;;;;;;20.49;45.21;101328.06;4841236;29;115222;-77
2023/07/20 01:59:15;;;;;;;;;;;;;;;20.46;45.34;101328.31;4840268;29;112767;-76
2023/07/20 02:01:42;;;;;;;;;;;;;;;20.41;45.46;101325.97;4854453;29;124261;-77
2023/07/20 02:04:11;;;;;;;;;;;;;;;20.37;45.45;101328.06;4853946;28;123582;-77
2023/07/20 02:06:38;;;;;;;;;;;;;;;20.34;45.53;101331.00;4854569;28;113672;-77
2023/07/20 02:09:05;;;;;;;;;;;;;;;20.33;45.47;101334.66;4837849;29;112272;-76
2023/07/20 02:11:32;;;;;;;;;;;;;;;20.33;45.68;101333.81;4837102;29;123692;-77
2023/07/20 02:13:59;;;;;;;;;;;;;;;20.32;45.49;101338.31;4851290;28;123655;-76
2023/07/20 02:16:26;;;;;;;;;;;;;;;20.32;45.58;101338.31;4840016;29;112456;-76
2023/07/20 02:18:53;;;;;;;;;;;;;;;20.31;45.59;101341.16;4840254;29;113508;-76
2023/07/20 02:21:20;;;;;;;;;;;;;;;20.31;45.78;101336.63;4855210;28;122927;-77
2023/07/20 02:23:47;;;;;;;;;;;;;;;20.32;45.67;101338.31;4840122;29;122855;-77
2023/07/20 02:26:14;;;;;;;;;;;;;;;20.33;45.73;101340.03;4857356;28;113077;-77
2023/07/20 02:28:41;;;;;;;;;;;;;;;20.33;45.71;101334.66;4857594;28;113214;-76
2023/07/20 02:31:08;;;;;;;;;;;;;;;20.34;45.75;101331.00;4840549;29;124741;-77
2023/07/20 02:33:35;;;;;;;;;;;;;;;20.35;45.80;101332.72;4823779;29;123311;-77
2023/07/20 02:36:02;;;;;;;;;;;;;;;20.36;45.90;101329.06;4854577;28;114918;-77
2023/07/20 02:38:29;;;;;;;;;;;;;;;20.35;45.96;101332.72;4854808;28;114684;-76
2023/07/20 02:40:56;;;;;;;;;;;;;;;20.34;45.86;101335.50;4838921;29;123293;-76
2023/07/20 02:43:23;;;;;;;;;;;;;;;20.33;45.83;101340.03;4856492;28;123058;-77
2023/07/20 02:45:50;;;;;;;;;;;;;;;20.31;46.02;101336.63;4855847;28;114517;-77
2023/07/20 02:48:18;;;;;;;;;;;;;;;20.29;45.76;101335.88;4858344;28;113456;-76
2023/07/20 02:50:47;;;;;;;;;;;;;;;20.26;45.80;101344.19;4856248;28;124861;-77
2023/07/20 02:53:14;;;;;;;;;;;;;;;20.23;45.82;101349.81;4856683;28;124243;-76
2023/07/20 02:55:41;;;;;;;;;;;;;;;20.18;45.88;101352.84;4841614;28;114048;-77
2023/07/20 02:58:08;;;;;;;;;;;;;;;20.15;45.94;101353.06;4854404;28;112636;-76
2023/07/20 03:00:35;;;;;;;;;;;;;;;20.13;45.97;101355.03;4844641;29;122319;-77
2023/07/20 03:03:02;;;;;;;;;;;;;;;20.12;45.95;101352.50;4856173;28;122327;-77
2023/07/20 03:05:29;;;;;;;;;;;;;;;20.12;46.09;101363.25;4841308;29;113453;-77
2023/07/20 03:07:56;;;;;;;;;;;;;;;20.11;46.02;101358.81;4856915;28;112556;-76
2023/07/20 03:10:23;;;;;;;;;;;;;;;20.10;46.16;101366.03;4841389;29;124341;-76
2023/07/20 03:12:50;;;;;;;;;;;;;;;20.12;46.09;101368.63;4837966;29;122245;-76
2023/07/20 03:15:17;;;;;;;;;;;;;;;20.12;46.15;101374.00;4840777;29;114027;-76
2023/07/20 03:17:44;;;;;;;;;;;;;;;20.11;46.10;101383.03;4840078;29;112584;-76
2023/07/20 03:20:12;;;;;;;;;;;;;;;20.09;46.07;101384.97;4853388;28;123733;-76
2023/07/20 03:22:40;;;;;;;;;;;;;;;20.07;46.07;101381.56;4854696;28;123287;-77
2023/07/20 03:25:07;;;;;;;;;;;;;;;20.05;46.03;101388.88;4855352;28;113575;-77
2023/07/20 03:27:35;;;;;;;;;;;;;;;20.01;46.20;101381.03;4832482;29;115770;-76
2023/07/20 03:30:02;;;;;;;;;;;;;;;19.97;46.07;101381.41;4853620;28;123578;-76
2023/07/20 03:32:29;;;;;;;;;;;;;;;19.94;46.31;101398.63;4836869;29;122764;-76
2023/07/20 03:34:56;;;;;;;;;;;;;;;19.89;46.18;101395.44;4853169;28;113925;-77
2023/07/20 03:37:23;;;;;;;;;;;;;;;19.87;46.34;101401.88;4840455;28;114323;-77
2023/07/20 03:39:50;;;;;;;;;;;;;;;19.83;46.29;101391.38;4842330;29;123067;-77
2023/07/20 03:42:17;;;;;;;;;;;;;;;19.80;46.48;101401.50;4855486;28;123427;-77
2023/07/20 03:44:44;;;;;;;;;;;;;;;19.78;46.24;101403.47;4837268;29;113819;-76
2023/07/20 03:47:11;;;;;;;;;;;;;;;19.74;46.40;101392.06;4841361;29;113462;-77
2023/07/20 03:49:38;;;;;;;;;;;;;;;19.72;46.37;101393.09;4838309;29;122626;-76
2023/07/20 03:52:05;;;;;;;;;;;;;;;19.70;46.30;101395.06;4841783;29;124330;-77
2023/07/20 03:54:32;;;;;;;;;;;;;;;19.69;46.29;101404.09;4839435;29;113374;-77
2023/07/20 03:57:00;;;;;;;;;;;;;;;19.63;46.36;101400.91;4839833;29;114009;-77
2023/07/20 03:59:27;;;;;;;;;;;;;;;19.61;46.32;101408.22;4852480;28;122422;-76
2023/07/20 04:01:54;;;;;;;;;;;;;;;19.57;46.51;101401.34;4854430;28;123139;-77
2023/07/20 04:04:22;;;;;;;;;;;;;;;19.53;46.54;101402.53;4829353;29;113473;-77
2023/07/20 04:06:49;;;;;;;;;;;;;;;19.50;46.59;101401.94;4839441;29;112196;-76
2023/07/20 04:09:15;;;;;;;;;;;;;;;19.46;46.61;101403.97;4838588;29;124025;-76
2023/07/20 04:11:42;;;;;;;;;;;;;;;19.43;46.65;101404.19;4839094;29;124056;-76
2023/07/20 04:14:10;;;;;;;;;;;;;;;19.42;46.65;101397.09;4835646;29;116251;-77
2023/07/20 04:16:37;;;;;;;;;;;;;;;19.37;46.68;101402.81;4836259;29;115187;-76
2023/07/20 04:19:04;;;;;;;;;;;;;;;19.35;46.60;101406.59;4854803;28;123421;-77
2023/07/20 04:21:31;;;;;;;;;;;;;;;19.33;46.57;101413.91;4840297;29;124271;-77
2023/07/20 04:23:58;;;;;;;;;;;;;;;19.31;46.75;101405.09;4838826;29;113662;-76
2023/07/20 04:26:25;;;;;;;;;;;;;;;19.28;46.74;101416.06;4854660;28;112918;-76
2023/07/20 04:28:52;;;;;;;;;;;;;;;19.24;46.83;101413.59;4839063;29;124522;-77
2023/07/20 04:31:34;;;;;;;;;;;;;;;19.23;46.91;101419.94;4838405;28;125895;-77
2023/07/20 04:34:01;;;;;;;;;;;;;;;19.23;46.88;101419.94;4853114;28;114013;-77
2023/07/20 04:36:28;;;;;;;;;;;;;;;19.24;46.78;101421.66;4837688;29;113240;-77
2023/07/20 04:38:56;;;;;;;;;;;;;;;19.24;46.82;101421.66;4837041;29;123539;-76
2023/07/20 04:41:24;;;;;;;;;;;;;;;19.26;46.97;101419.72;4852219;28;124910;-76
2023/07/20 04:43:54;;;;;;;;;;;;;;;19.28;46.84;101416.06;4838380;29;113876;-76
2023/07/20 04:46:27;;;;;;;;;;;;;;;19.27;46.91;101417.91;4849159;28;113334;-77
2023/07/20 04:48:55;;;;;;;;;;;;;;;19.26;47.05;101422.41;4837159;29;124715;-77
2023/07/20 04:51:23;;;;;;;;;;;;;;;19.26;46.93;101419.72;4837270;29;125249;-77
2023/07/20 04:53:53;;;;;;;;;;;;;;;19.31;47.16;101421.19;4838684;29;114167;-76
2023/07/20 04:56:23;;;;;;;;;;;;;;;19.34;47.29;101431.72;4830935;29;112862;-77
2023/07/20 04:58:51;;;;;;;;;;;;;;;19.37;47.32;101420.78;4836718;29;124412;-77
2023/07/20 05:01:18;;;;;;;;;;;;;;;19.38;47.51;101417.09;4850436;28;126011;-76
2023/07/20 05:03:45;;;;;;;;;;;;;;;19.42;47.56;101426.66;4834529;29;115036;-76
2023/07/20 05:06:13;;;;;;;;;;;;;;;19.44;47.43;101425.59;4860176;28;113692;-77
2023/07/20 05:08:40;;;;;;;;;;;;;;;19.48;47.30;101418.16;4838261;29;124211;-76
2023/07/20 05:11:08;;;;;;;;;;;;;;;19.51;47.45;101415.22;4851975;28;123663;-77
2023/07/20 05:13:36;;;;;;;;;;;;;;;19.52;47.35;101414.28;4833347;29;114707;-77
2023/07/20 05:16:03;;;;;;;;;;;;;;;19.53;47.41;101418.66;4852032;28;113731;-77
2023/07/20 05:18:32;;;;;;;;;;;;;;;19.53;47.28;101421.34;4851381;28;124331;-77
2023/07/20 05:20:59;;;;;;;;;;;;;;;19.53;47.30;101426.72;4851765;28;124357;-76
2023/07/20 05:23:26;;;;;;;;;;;;;;;19.53;47.22;101424.03;4852243;28;113931;-76
2023/07/20 05:25:55;;;;;;;;;;;;;;;19.53;47.31;101426.72;4836538;29;112817;-77
2023/07/20 05:28:22;;;;;;;;;;;;;;;19.53;47.51;101424.03;4836239;29;123889;-77
2023/07/20 05:30:51;;;;;;;;;;;;;;;19.54;47.47;101435.66;4827891;28;123241;-77
2023/07/20 05:33:22;;;;;;;;;;;;;;;19.57;47.57;101432.72;4851698;28;114776;-77
2023/07/20 05:35:49;;;;;;;;;;;;;;;19.61;47.59;101434.25;4850580;28;112273;-77
2023/07/20 05:38:16;;;;;;;;;;;;;;;19.64;47.66;101434.84;4850333;28;124379;-77
2023/07/20 05:40:44;;;;;;;;;;;;;;;19.69;47.59;101430.97;4853208;28;123815;-77
2023/07/20 05:43:11;;;;;;;;;;;;;;;19.74;47.53;101440.44;4836066;29;114872;-77
2023/07/20 05:45:46;;;;;;;;;;;;;;;19.79;47.67;101442.78;4836759;29;114541;-78
2023/07/20 05:48:13;;;;;;;;;;;;;;;19.84;47.48;101440.63;4849575;28;124216;-76
2023/07/20 05:50:43;;;;;;;;;;;;;;;19.88;47.45;101436.72;4836357;29;123980;-77
2023/07/20 05:53:10;;;;;;;;;;;;;;;19.93;47.57;101445.31;4835311;29;115803;-77
2023/07/20 05:55:39;;;;;;;;;;;;;;;19.98;47.62;101440.41;4834802;29;114909;-77
2023/07/20 05:58:06;;;;;;;;;;;;;;;20.05;47.85;101448.03;4843099;29;124067;-76
2023/07/20 06:00:33;;;;;;;;;;;;;;;20.08;47.57;101442.41;4833555;29;124608;-76
2023/07/20 06:03:00;;;;;;;;;;;;;;;20.11;47.67;101444.88;4830440;29;114912;-77
2023/07/20 06:05:27;;;;;;;;;;;;;;;20.14;47.70;101453.59;4848899;28;113217;-76
2023/07/20 06:07:57;;;;;;;;;;;;;;;20.17;47.49;101452.47;4835030;29;124482;-77
2023/07/20 06:10:24;;;;;;;;;;;;;;;20.20;47.50;101446.88;4835002;29;124520;-76
2023/07/20 06:12:51;;;;;;;;;;;;;;;20.24;47.50;101461.81;4830175;29;113761;-77
2023/07/20 06:15:31;;;;;;;;;;;;;;;20.26;47.50;101467.91;4834050;29;114330;-77
2023/07/20 06:17:58;;;;;;;;;;;;;;;20.28;47.61;101476.72;4829157;29;124524;-77
2023/07/20 06:20:26;;;;;;;;;;;;;;;20.29;47.55;101478.47;4851198;28;123146;-77
2023/07/20 06:22:53;;;;;;;;;;;;;;;20.32;47.71;101472.81;4835569;29;114957;-77
2023/07/20 06:25:21;;;;;;;;;;;;;;;20.34;47.59;101476.28;4835707;29;113735;-77
2023/07/20 06:27:49;;;;;;;;;;;;;;;20.37;47.64;101476.03;4849844;28;125106;-77
2023/07/20 06:30:15;;;;;;;;;;;;;;;20.41;47.79;101482.88;4847984;28;123766;-77
2023/07/20 06:32:42;;;;;;;;;;;;;;;20.48;47.89;101477.91;4847569;28;114710;-77
2023/07/20 06:35:09;;;;;;;;;;;;;;;20.53;47.66;101469.47;4833875;29;112520;-77
2023/07/20 06:37:36;;;;;;;;;;;;;;;20.54;47.72;101473.88;4834923;29;124218;-77
2023/07/20 06:40:04;;;;;;;;;;;;;;;20.55;47.78;101467.50;4848842;28;124228;-77
2023/07/20 06:42:34;;;;;;;;;;;;;;;20.59;47.70;101469.00;4853379;28;116338;-77
2023/07/20 06:45:10;;;;;;;;;;;;;;;20.66;47.80;101464.88;4846978;28;114652;-76
2023/07/20 06:47:41;;;;;;;;;;;;;;;20.73;47.87;101466.13;4836103;29;124140;-76
2023/07/20 06:50:09;;;;;;;;;;;;;;;20.79;47.91;101471.03;4836643;29;123786;-77
2023/07/20 06:52:36;;;;;;;;;;;;;;;20.86;47.79;101470.56;4835491;29;114194;-77
2023/07/20 06:55:03;;;;;;;;;;;;;;;20.96;47.87;101471.53;4849679;28;112258;-78
2023/07/20 06:57:32;;;;;;;;;;;;;;;21.03;47.88;101472.75;4834436;29;124369;-78
2023/07/20 06:59:59;;;;;;;;;;;;;;;21.07;47.82;101474.22;4832977;29;125210;-78
2023/07/20 07:02:26;;;;;;;;;;;;;;;21.14;47.82;101475.47;4849772;28;113695;-77
2023/07/20 07:04:53;;;;;;;;;;;;;;;21.25;47.95;101479.13;4828825;29;114015;-78
2023/07/20 07:07:27;;;;;;;;;;;;;;;21.36;47.93;101476.41;4848992;28;124816;-78
2023/07/20 07:09:54;;;;;;;;;;;;;;;21.48;47.95;101471.94;4848566;28;123273;-78
2023/07/20 07:12:21;;;;;;;;;;;;;;;21.63;48.02;101486.84;4835230;29;113549;-78
2023/07/20 07:14:48;;;;;;;;;;;;;;;21.78;47.97;101479.34;4847561;28;113343;-77
2023/07/20 07:17:15;;;;;;;;;;;;;;;21.93;47.90;101483.47;4847423;28;124356;-77
2023/07/20 07:19:45;;;;;;;;;;;;;;;22.03;47.90;101483.53;4835822;29;124591;-77
2023/07/20 07:22:15;;;;;;;;;;;;;;;22.13;47.54;101478.22;4858392;28;113409;-76
2023/07/20 07:24:42;;;;;;;;;;;;;;;22.19;47.51;101477.75;4856185;28;113422;-77
2023/07/20 07:27:09;;;;;;;;;;;;;;;22.27;47.58;101480.66;4852509;28;123563;-77
2023/07/20 07:29:36;;;;;;;;;;;;;;;22.35;47.60;101478.16;4846893;29;124042;-77
2023/07/20 07:32:03;;;;;;;;;;;;;;;22.44;47.41;101481.09;4841545;29;114391;-77
2023/07/20 07:34:34;;;;;;;;;;;;;;;22.53;47.60;101480.31;4851316;28;114701;-77
2023/07/20 07:37:01;;;;;;;;;;;;;;;22.60;47.49;101481.47;4850728;28;124498;-76
2023/07/20 07:39:30;;;;;;;;;;;;;;;22.71;47.42;101484.09;4837799;29;124451;-77
2023/07/20 07:42:00;;;;;;;;;;;;;;;22.86;47.62;101486.47;4837690;29;115209;-77
2023/07/20 07:44:27;;;;;;;;;;;;;;;23.03;47.72;101482.28;4837850;29;113709;-77
2023/07/20 07:46:54;;;;;;;;;;;;;;;23.23;47.59;101483.28;4836733;29;124182;-77
2023/07/20 07:49:21;;;;;;;;;;;;;;;23.37;47.52;101491.00;4835419;29;124085;-77
2023/07/20 07:51:48;;;;;;;;;;;;;;;23.44;47.36;101492.16;4837887;29;114562;-76
2023/07/20 07:54:15;;;;;;;;;;;;;;;23.52;47.30;101489.59;4838480;29;114722;-76
2023/07/20 07:56:44;;;;;;;;;;;;;;;23.63;47.06;101495.91;4836938;29;124432;-76
2023/07/20 07:59:11;;;;;;;;;;;;;;;23.69;46.90;101495.34;4837195;29;124337;-76
2023/07/20 08:01:38;;;;;;;;;;;;;;;23.67;46.81;101491.94;4836853;29;115115;-76
2023/07/20 08:04:05;;;;;;;;;;;;;;;23.64;46.75;101497.63;4837027;29;114148;-76
2023/07/20 08:06:32;;;;;;;;;;;;;;;23.68;46.79;101509.88;4837171;29;124470;-76
2023/07/20 08:08:59;;;;;;;;;;;;;;;23.74;46.81;101497.66;4836333;29;123753;-77
2023/07/20 08:11:26;;;;;;;;;;;;;;;23.83;46.97;101505.81;4838057;29;113735;-76
2023/07/20 08:13:53;;;;;;;;;;;;;;;23.97;47.08;101509.13;4841141;29;113909;-76
2023/07/20 08:16:20;;;;;;;;;;;;;;;24.09;47.05;101507.97;4837269;29;123327;-76
2023/07/20 08:18:48;;;;;;;;;;;;;;;24.23;47.00;101510.28;4833745;29;124307;-76
2023/07/20 08:21:15;;;;;;;;;;;;;;;24.39;47.15;101514.25;4850767;28;115692;-77
2023/07/20 08:23:42;;;;;;;;;;;;;;;24.57;46.85;101522.56;4837177;29;114505;-76
2023/07/20 08:26:09;;;;;;;;;;;;;;;24.66;46.95;101511.69;4837061;29;124137;-78
2023/07/20 08:28:36;;;;;;;;;;;;;;;24.71;46.58;101518.53;4838137;29;124706;-78
2023/07/20 08:31:05;;;;;;;;;;;;;;;24.72;46.66;101512.13;4851444;28;114513;-77
2023/07/20 08:33:33;;;;;;;;;;;;;;;24.70;46.32;101511.41;4836689;29;113649;-77
2023/07/20 08:36:01;;;;;;;;;;;;;;;24.65;46.39;101512.69;4850775;28;124411;-77
2023/07/20 08:38:28;;;;;;;;;;;;;;;24.58;46.34;101514.28;4835371;29;124223;-76
2023/07/20 08:40:55;;;;;;;;;;;;;;;24.54;46.21;101518.25;4851173;28;114124;-76
2023/07/20 08:43:26;;;;;;;;;;;;;;;24.48;46.05;101518.81;4849129;28;113813;-76
2023/07/20 08:45:56;;;;;;;;;;;;;;;24.40;46.40;101510.56;4844558;28;124638;-78
2023/07/20 08:48:24;;;;;;;;;;;;;;;24.32;45.99;101518.53;4846011;28;124237;-77
2023/07/20 08:50:52;;;;;;;;;;;;;;;24.27;46.01;101511.69;4834245;29;114386;-76
2023/07/20 08:53:20;;;;;;;;;;;;;;;24.28;46.33;101508.00;4836961;29;113904;-77
2023/07/20 08:55:48;;;;;;;;;;;;;;;24.37;46.50;101517.09;4837741;29;124347;-77
2023/07/20 08:58:15;;;;;;;;;;;;;;;24.47;46.48;101511.72;4839922;29;124131;-76
2023/07/20 09:00:43;;;;;;;;;;;;;;;24.58;46.39;101508.00;4857424;28;114724;-77
2023/07/20 09:03:14;;;;;;;;;;;;;;;24.67;46.30;101499.84;4838164;29;114233;-76
2023/07/20 09:05:41;;;;;;;;;;;;;;;24.76;46.22;101494.56;4837150;29;124198;-76
2023/07/20 09:08:08;;;;;;;;;;;;;;;24.83;46.21;101501.13;4835636;29;124035;-77
2023/07/20 09:10:35;;;;;;;;;;;;;;;24.92;46.27;101496.66;4849513;28;114267;-76
2023/07/20 09:13:02;;;;;;;;;;;;;;;25.04;46.50;101495.50;4836401;29;115136;-78
2023/07/20 09:15:29;;;;;;;;;;;;;;;25.15;46.39;101494.47;4836396;29;125353;-77
2023/07/20 09:17:56;;;;;;;;;;;;;;;25.29;46.10;101496.69;4840202;29;124609;-77
2023/07/20 09:20:23;;;;;;;;;;;;;;;25.39;46.12;101492.09;4835262;29;115303;-77
2023/07/20 09:22:52;;;;;;;;;;;;;;;25.45;46.03;101494.22;4836450;29;114366;-77
2023/07/20 09:25:20;;;;;;;;;;;;;;;25.54;45.99;101495.19;4835765;29;124950;-77
2023/07/20 09:27:49;;;;;;;;;;;;;;;25.63;46.00;101493.38;4836442;29;124234;-79
2023/07/20 09:30:18;;;;;;;;;;;;;;;25.74;45.77;101495.91;4834473;29;114741;-77
2023/07/20 09:32:47;;;;;;;;;;;;;;;25.78;45.56;101486.44;4851404;28;113920;-78
2023/07/20 09:35:20;;;;;;;;;;;;;;;25.76;45.26;101488.44;4838592;29;125406;-79
2023/07/20 09:37:52;;;;;;;;;;;;;;;25.71;45.25;101490.78;4848766;28;124925;-79
2023/07/20 09:40:39;;;;;;;;;;;;;;;25.72;45.40;101492.47;4845853;28;114015;-77
2023/07/20 09:43:09;;;;;;;;;;;;;;;25.75;45.47;101481.34;4849559;28;113604;-78
2023/07/20 09:45:42;;;;;;;;;;;;;;;25.77;45.40;101482.03;4836187;29;125570;-78
2023/07/20 09:48:15;;;;;;;;;;;;;;;25.79;45.46;101482.72;4849061;28;123155;-76
2023/07/20 09:50:49;;;;;;;;;;;;;;;25.81;45.33;101486.13;4833672;29;114599;-77
2023/07/20 09:53:20;;;;;;;;;;;;;;;25.79;45.29;101482.72;4836043;29;113726;-77
2023/07/20 09:55:47;;;;;;;;;;;;;;;25.75;45.19;101489.47;4832268;29;123599;-77
2023/07/20 09:58:15;;;;;;;;;;;;;;;25.73;45.24;101482.47;4849811;28;123461;-77
2023/07/20 10:00:46;;;;;;;;;;;;;;;25.69;44.99;101481.06;4834897;29;115525;-76
2023/07/20 10:03:21;;;;;;;;;;;;;;;25.61;45.08;101482.69;4831607;29;114535;-77
2023/07/20 10:05:51;;;;;;;;;;;;;;;25.55;44.92;101490.59;4835909;29;124240;-76
2023/07/20 10:08:20;;;;;;;;;;;;;;;25.44;45.35;101483.50;4834956;29;126421;-77
2023/07/20 10:10:50;;;;;;;;;;;;;;;25.37;45.05;101488.69;4833653;29;115644;-76
2023/07/20 10:13:18;;;;;;;;;;;;;;;25.31;45.29;101481.13;4828556;29;113668;-74
2023/07/20 10:15:50;;;;;;;;;;;;;;;25.28;45.28;101484.16;4835281;29;124262;-75
2023/07/20 10:18:21;;;;;;;;;;;;;;;25.25;45.45;101479.03;4834049;29;123975;-75
2023/07/20 10:20:49;;;;;;;;;;;;;;;25.21;45.31;101485.72;4834240;29;113544;-75
2023/07/20 10:23:19;;;;;;;;;;;;;;;25.16;45.28;101480.75;4829815;29;114583;-75
2023/07/20 10:25:47;;;;;;;;;;;;;;;25.14;45.16;101477.31;4833481;29;124560;-76
2023/07/20 10:28:14;;;;;;;;;;;;;;;25.15;45.15;101483.63;4830851;29;124672;-75
2023/07/20 10:30:41;;;;;;;;;;;;;;;25.21;45.16;101483.03;4847222;28;114720;-75
2023/07/20 10:33:08;;;;;;;;;;;;;;;25.23;45.52;101476.47;4830851;29;112762;-76
2023/07/20 10:35:51;;;;;;;;;;;;;;;25.30;45.48;101487.59;4829746;28;123018;-75
2023/07/20 10:38:19;;;;;;;;;;;;;;;25.39;45.58;101475.84;4827211;28;122947;-76
2023/07/20 10:40:55;;;;;;;;;;;;;;;25.44;45.56;101478.94;4842658;29;114818;-76
2023/07/20 10:43:22;;;;;;;;;;;;;;;25.52;45.42;101474.59;4842654;28;113877;-76
2023/07/20 10:45:50;;;;;;;;;;;;;;;25.61;45.58;101468.28;4843911;28;123176;-76
2023/07/20 10:48:17;;;;;;;;;;;;;;;25.73;45.51;101467.06;4830199;29;125509;-76
2023/07/20 10:50:45;;;;;;;;;;;;;;;25.84;45.36;101463.25;4829390;29;115229;-75
2023/07/20 10:53:13;;;;;;;;;;;;;;;25.96;45.39;101455.78;4828700;29;114680;-76
2023/07/20 10:55:40;;;;;;;;;;;;;;;26.03;45.33;101456.84;4843051;28;124348;-76
2023/07/20 10:58:08;;;;;;;;;;;;;;;26.09;45.23;101456.25;4830631;29;124129;-75
2023/07/20 11:00:35;;;;;;;;;;;;;;;26.22;45.03;101456.72;4848695;28;114572;-76
2023/07/20 11:03:02;;;;;;;;;;;;;;;26.38;45.50;101455.13;4836282;29;113613;-77
2023/07/20 11:05:32;;;;;;;;;;;;;;;26.59;45.34;101463.78;4838127;29;125838;-77
2023/07/20 11:07:59;;;;;;;;;;;;;;;26.80;45.29;101454.41;4848183;28;126526;-75
2023/07/20 11:10:26;;;;;;;;;;;;;;;27.00;45.17;101455.91;4832222;29;114555;-77
2023/07/20 11:13:12;;;;;;;;;;;;;;;27.18;44.89;101452.22;4849428;28;113632;-76
2023/07/20 11:15:57;;;;;;;;;;;;;;;27.28;44.82;101447.56;4836065;29;124798;-76
2023/07/20 11:18:28;;;;;;;;;;;;;;;27.33;44.49;101453.38;4841312;28;124353;-74
2023/07/20 11:20:55;;;;;;;;;;;;;;;27.33;44.48;101444.34;4837332;29;115448;-74
2023/07/20 11:23:22;;;;;;;;;;;;;;;27.35;44.48;101443.19;4837625;29;113946;-74
2023/07/20 11:25:50;;;;;;;;;;;;;;;27.43;44.78;101441.50;4835079;29;123143;-74
2023/07/20 11:28:17;;;;;;;;;;;;;;;27.52;44.86;101440.47;4837378;29;124202;-74
2023/07/20 11:30:44;;;;;;;;;;;;;;;27.63;44.75;101439.31;4849646;28;114514;-75
2023/07/20 11:33:11;;;;;;;;;;;;;;;27.67;44.36;101436.13;4836993;29;113409;-74
2023/07/20 11:35:46;;;;;;;;;;;;;;;27.63;44.27;101431.16;4836421;29;124350;-74
2023/07/20 11:38:13;;;;;;;;;;;;;;;27.61;44.13;101436.75;4836370;29;125588;-74
2023/07/20 11:40:44;;;;;;;;;;;;;;;27.60;44.07;101429.63;4836499;29;115940;-76
2023/07/20 11:43:11;;;;;;;;;;;;;;;27.56;43.92;101431.00;4833638;29;115460;-74
2023/07/20 11:45:41;;;;;;;;;;;;;;;27.48;44.05;101420.06;4849075;28;124950;-74
2023/07/20 11:48:15;;;;;;;;;;;;;;;27.42;43.84;101420.75;4851667;28;124168;-75
2023/07/20 11:50:42;;;;;;;;;;;;;;;27.34;43.72;101419.69;4836631;29;114684;-75
2023/07/20 11:53:09;;;;;;;;;;;;;;;27.25;43.98;101423.41;4837623;29;114999;-75
2023/07/20 11:55:36;;;;;;;;;;;;;;;27.17;43.85;101423.34;4837858;29;124143;-75
2023/07/20 11:58:06;;;;;;;;;;;;;;;27.14;43.97;101418.22;4843852;29;123787;-74
2023/07/20 12:00:34;;;;;;;;;;;;;;;27.13;43.98;101411.94;4835909;29;113479;-75
2023/07/20 12:03:04;;;;;;;;;;;;;;;27.12;44.03;101414.81;4837570;29;114314;-75
2023/07/20 12:05:31;;;;;;;;;;;;;;;27.13;44.21;101405.66;4835999;29;124178;-75
2023/07/20 12:08:01;;;;;;;;;;;;;;;27.18;44.14;101415.03;4837076;29;124106;-74
2023/07/20 12:10:28;;;;;;;;;;;;;;;27.23;44.19;101413.69;4836460;29;115347;-75
2023/07/20 12:13:01;;;;;;;;;;;;;;;27.30;44.17;101415.59;4835997;29;114589;-74
2023/07/20 12:15:29;;;;;;;;;;;;;;;27.35;44.31;101405.09;4848220;28;124538;-75
2023/07/20 12:17:58;;;;;;;;;;;;;;;27.40;44.26;101395.56;4831537;29;124825;-75
2023/07/20 12:20:25;;;;;;;;;;;;;;;27.47;44.31;101407.50;4836192;29;114309;-75
2023/07/20 12:22:52;;;;;;;;;;;;;;;27.54;44.07;101403.09;4825113;29;112929;-75
2023/07/20 12:25:20;;;;;;;;;;;;;;;27.59;44.04;101406.16;4850332;28;124841;-75
2023/07/20 12:27:47;;;;;;;;;;;;;;;27.60;43.97;101394.25;4831387;29;123321;-75
2023/07/20 12:30:15;;;;;;;;;;;;;;;27.61;43.86;101387.78;4845995;28;114363;-74
2023/07/20 12:32:42;;;;;;;;;;;;;;;27.59;43.62;101395.25;4835012;29;114692;-75
2023/07/20 12:35:09;;;;;;;;;;;;;;;27.57;43.67;101389.13;4831049;29;124225;-75